Time;durP1;ratioP1;P1;durP2;ratioP2;P2;SDS_P1;SDS_P2;PMS_P1;PMS_P2;Temp;Humidity;BMP_temperature;BMP_pressure;BME280_temperature;BME280_humidity;BME280_pressure;Samples;Min_cycle;Max_cycle;Signal;HPM_P1;HPM_P2
2022/02/13 00:00:27;;;;;;;18.92;10.63;;;;;;;-0.65;88.68;101439.91;4983029;28;20058;-83
2022/02/13 00:02:54;;;;;;;18.08;10.70;;;;;;;-0.84;89.09;101429.53;4984531;28;20054;-82
2022/02/13 00:05:21;;;;;;;20.20;11.00;;;;;;;-0.78;89.73;101444.72;4980654;28;20109;-82
2022/02/13 00:07:47;;;;;;;18.13;10.73;;;;;;;-0.87;89.98;101424.53;4975312;28;20663;-84
2022/02/13 00:10:15;;;;;;;17.90;10.60;;;;;;;-0.80;89.66;101422.53;4966929;28;20047;-83
2022/02/13 00:12:43;;;;;;;18.02;10.25;;;;;;;-0.75;89.49;101423.19;4984114;28;20057;-82
2022/02/13 00:15:10;;;;;;;18.27;9.90;;;;;;;-0.65;88.58;101414.19;4986792;28;20110;-82
2022/02/13 00:17:39;;;;;;;18.00;10.25;;;;;;;-0.58;88.12;101423.31;4986302;28;20058;-81
2022/02/13 00:20:07;;;;;;;20.58;10.27;;;;;;;-0.57;87.81;101419.84;4985454;28;20383;-80
2022/02/13 00:22:34;;;;;;;24.27;10.32;;;;;;;-0.54;87.53;101416.31;4985033;28;20074;-81
2022/02/13 00:25:01;;;;;;;17.50;9.63;;;;;;;-0.55;87.31;101414.63;4987404;28;20094;-85
2022/02/13 00:27:28;;;;;;;20.95;10.50;;;;;;;-0.51;87.26;101414.44;4990010;28;20046;-84
2022/02/13 01:29:34;;;;;;;21.08;9.68;;;;;;;-0.46;85.31;101368.78;4956380;29;20059;-84
2022/02/13 01:32:21;;;;;;;18.63;9.73;;;;;;;-0.50;85.21;101363.88;4972339;28;20059;-85
2022/02/13 01:34:51;;;;;;;17.42;8.60;;;;;;;-0.67;85.81;101344.03;4978672;28;20046;-83
2022/02/13 01:37:18;;;;;;;17.80;9.27;;;;;;;-0.61;85.83;101359.19;4979697;28;20046;-85
2022/02/13 01:39:54;;;;;;;16.50;9.35;;;;;;;-0.56;86.56;101367.53;5005909;23;20046;-83
2022/02/13 01:42:25;;;;;;;16.88;9.32;;;;;;;-0.67;86.08;101344.88;5012682;28;20215;-82
2022/02/13 01:45:30;;;;;;;16.58;9.32;;;;;;;-0.59;86.60;101351.41;4999145;28;20058;-83
2022/02/13 01:48:08;;;;;;;15.93;9.45;;;;;;;-0.64;86.56;101354.19;4999009;28;20046;-85
2022/02/13 01:50:37;;;;;;;21.15;10.27;;;;;;;-0.67;87.00;101344.88;4987996;28;20577;-83
2022/02/13 01:53:07;;;;;;;19.60;10.40;;;;;;;-0.71;87.17;101345.06;4981680;28;20082;-84
2022/02/13 01:55:37;;;;;;;17.15;9.15;;;;;;;-0.85;87.06;101339.66;4983371;28;20074;-85
2022/02/13 01:58:07;;;;;;;21.33;9.73;;;;;;;-0.97;87.41;101329.94;4981717;28;20133;-84
2022/02/13 02:01:15;;;;;;;19.70;9.80;;;;;;;-1.11;87.59;101325.38;4981258;28;20047;-82
2022/02/13 02:03:45;;;;;;;19.10;10.05;;;;;;;-0.99;87.96;101332.56;4982881;28;20489;-83
2022/02/13 02:06:12;;;;;;;19.13;10.52;;;;;;;-1.01;87.90;101324.94;4980620;28;20061;-83
2022/02/13 02:08:43;;;;;;;18.95;9.63;;;;;;;-0.98;88.15;101338.56;4980123;28;20078;-84
2022/02/13 02:11:10;;;;;;;19.55;10.02;;;;;;;-1.20;88.50;101292.38;4980069;28;20054;-84
2022/02/13 02:13:42;;;;;;;18.88;9.38;;;;;;;-1.10;88.48;101321.91;4980171;28;20051;-84
2022/02/13 02:16:09;;;;;;;18.48;9.85;;;;;;;-1.17;88.40;101305.09;4980632;28;20051;-85
2022/02/13 02:18:36;;;;;;;20.73;10.50;;;;;;;-1.15;89.02;101304.13;4980881;28;20202;-84
2022/02/13 02:21:08;;;;;;;21.20;10.82;;;;;;;-1.05;88.79;101314.84;4980474;28;20528;-84
2022/02/13 02:23:39;;;;;;;19.77;10.38;;;;;;;-1.07;88.86;101312.34;4985015;28;20061;-84
2022/02/13 02:26:06;;;;;;;22.00;10.32;;;;;;;-1.08;88.82;101308.13;4982588;28;20055;-82
2022/02/13 02:28:33;;;;;;;21.02;10.20;;;;;;;-1.07;88.53;101312.34;4982434;28;20061;-84
2022/02/13 02:31:01;;;;;;;17.13;9.90;;;;;;;-1.15;88.46;101301.56;4985117;28;20050;-83
2022/02/13 02:33:29;;;;;;;18.05;9.73;;;;;;;-1.22;88.81;101289.88;4982114;28;20047;-85
2022/02/13 02:35:58;;;;;;;19.58;10.07;;;;;;;-1.27;88.84;101280.69;4980257;28;20055;-85
2022/02/13 02:38:25;;;;;;;17.85;9.48;;;;;;;-1.47;89.73;101289.25;4979861;28;20049;-84
2022/02/13 02:40:53;;;;;;;19.83;9.98;;;;;;;-1.57;89.60;101282.81;4979546;28;20050;-83
2022/02/13 02:43:20;;;;;;;18.13;10.57;;;;;;;-1.44;89.81;101305.34;4981718;28;20053;-84
2022/02/13 02:45:48;;;;;;;16.92;10.02;;;;;;;-1.37;89.93;101303.34;4980379;28;20047;-83
2022/02/13 02:48:22;;;;;;;18.10;9.70;;;;;;;-1.50;90.17;101304.78;4979173;28;20458;-84
2022/02/13 02:50:51;;;;;;;18.65;10.15;;;;;;;-1.48;89.59;101293.56;4978250;28;20086;-84
2022/02/13 02:53:38;;;;;;;18.05;9.98;;;;;;;-1.43;89.94;101295.94;4978958;28;20054;-84
2022/02/13 02:59:29;;;;;;;17.65;9.77;;;;;;;-1.40;90.00;101306.03;4978920;28;20050;-84
2022/02/13 03:30:10;;;;;;;19.58;10.50;;;;;;;-1.43;88.40;101255.69;4860120;29;20092;-82
2022/02/13 03:35:23;;;;;;;20.75;10.60;;;;;;;-1.58;88.75;101222.13;4968163;28;20059;-83
2022/02/13 03:37:54;;;;;;;22.40;11.35;;;;;;;-1.53;88.77;101231.31;4976843;28;20057;-80
2022/02/13 03:40:28;;;;;;;18.15;10.20;;;;;;;-1.55;88.77;101239.97;4978480;28;20250;-83
2022/02/13 03:43:10;;;;;;;18.15;9.65;;;;;;;-1.79;89.67;101213.56;4978076;28;20047;-83
2022/02/13 03:45:42;;;;;;;14.63;9.43;;;;;;;-1.86;89.38;101213.00;4979269;28;20047;-83
2022/02/13 03:48:09;;;;;;;;;;;;;;;-1.83;90.50;101215.44;4980652;28;20051;-83
2022/02/13 04:08:17;;;;;;;17.50;9.90;;;;;;;-1.85;88.96;101195.88;4917830;29;20064;-81
2022/02/13 04:10:47;;;;;;;15.57;9.75;;;;;;;-1.80;89.06;101199.91;4956364;29;20077;-82
2022/02/13 04:13:26;;;;;;;18.25;10.30;;;;;;;-1.75;88.83;101215.13;4956306;29;20461;-83
2022/02/13 04:15:53;;;;;;;18.08;9.63;;;;;;;-1.76;89.26;101209.16;4970829;23;20226;-82
2022/02/13 04:18:19;;;;;;;18.60;10.25;;;;;;;-1.75;89.58;101208.25;4960439;29;20066;-82
2022/02/13 04:20:47;;;;;;;18.88;10.23;;;;;;;-1.68;88.72;101209.66;4961714;28;20074;-81
2022/02/13 04:23:14;;;;;;;20.58;10.45;;;;;;;-1.72;89.55;101192.75;4963198;29;20086;-81
2022/02/13 04:25:41;;;;;;;21.48;10.02;;;;;;;-1.70;89.10;101198.63;4965113;28;20051;-81
2022/02/13 04:28:07;;;;;;;17.67;9.98;;;;;;;-1.78;89.83;101197.28;4980621;28;20102;-82
2022/02/13 04:30:34;;;;;;;19.60;10.45;;;;;;;-1.77;89.92;101189.53;4981829;28;20055;-81
2022/02/13 04:33:01;;;;;;;17.77;10.75;;;;;;;-1.80;90.04;101189.66;4981295;28;20146;-83
2022/02/13 04:35:28;;;;;;;21.05;10.23;;;;;;;-1.82;89.94;101196.56;4981474;28;20082;-83
2022/02/13 04:37:57;;;;;;;18.35;11.05;;;;;;;-1.80;90.28;101189.66;4980931;28;20070;-85
2022/02/13 04:40:25;;;;;;;17.33;9.68;;;;;;;-1.85;90.10;101190.75;4981346;28;20115;-83
2022/02/13 04:42:52;;;;;;;16.75;10.82;;;;;;;-1.91;90.50;101181.59;4981971;28;20089;-82
2022/02/13 04:45:18;;;;;;;16.38;10.20;;;;;;;-1.97;91.35;101186.13;4981480;28;20110;-81
2022/02/13 04:47:45;;;;;;;20.05;11.43;;;;;;;-2.04;91.50;101181.25;4982583;28;20106;-81
2022/02/13 04:50:18;;;;;;;21.38;11.00;;;;;;;-1.93;91.08;101175.69;4981275;28;20051;-81
2022/02/13 04:52:45;;;;;;;16.40;10.32;;;;;;;-1.91;90.95;101173.91;4982555;28;20101;-82
2022/02/13 04:55:13;;;;;;;17.02;10.57;;;;;;;-1.82;90.44;101164.97;4982198;28;20130;-82
2022/02/13 04:57:40;;;;;;;17.23;10.15;;;;;;;-1.83;90.59;101168.41;4982134;28;20138;-84
2022/02/13 05:00:09;;;;;;;16.17;10.07;;;;;;;-1.85;90.89;101162.53;4983175;28;20130;-81
2022/02/13 05:02:35;;;;;;;18.45;10.27;;;;;;;-1.93;91.26;101156.91;4984542;28;20062;-82
2022/02/13 05:05:03;;;;;;;17.63;10.23;;;;;;;-1.94;91.13;101156.06;4985836;28;20079;-81
2022/02/13 05:07:29;;;;;;;17.20;10.38;;;;;;;-1.93;90.81;101152.59;4985108;28;20061;-81
2022/02/13 05:09:56;;;;;;;18.23;10.18;;;;;;;-1.90;90.58;101143.94;4982986;28;20134;-82
2022/02/13 05:12:24;;;;;;;19.65;9.98;;;;;;;-1.91;90.23;101160.25;4979892;28;20046;-82
2022/02/13 05:14:52;;;;;;;16.50;10.18;;;;;;;-1.89;90.80;101151.56;4982133;28;20241;-82
2022/02/13 05:17:21;;;;;;;18.73;10.50;;;;;;;-1.88;90.61;101145.53;4982732;28;20207;-81
2022/02/13 05:19:47;;;;;;;17.13;10.70;;;;;;;-1.88;90.27;101149.81;4982741;28;20082;-82
2022/02/13 05:22:14;;;;;;;22.33;10.65;;;;;;;-1.91;90.54;101155.09;4981735;28;20109;-82
2022/02/13 05:24:40;;;;;;;20.02;10.43;;;;;;;-1.98;89.87;101159.66;4980703;28;20047;-82
2022/02/13 05:27:08;;;;;;;16.83;10.05;;;;;;;-2.03;91.20;101141.06;4979624;28;20086;-81
2022/02/13 05:29:36;;;;;;;21.40;11.02;;;;;;;-1.99;90.85;101147.72;4979572;28;20157;-82
2022/02/13 05:32:05;;;;;;;23.63;10.32;;;;;;;-2.06;90.87;101152.28;4978858;28;20142;-80
2022/02/13 05:34:32;;;;;;;19.00;10.90;;;;;;;-2.06;91.37;101154.00;4978930;28;20421;-83
2022/02/13 05:36:58;;;;;;;20.30;10.02;;;;;;;-2.03;90.66;101153.88;4978878;28;20085;-83
2022/02/13 05:39:25;;;;;;;19.15;10.57;;;;;;;-2.06;91.46;101152.28;4978656;28;20054;-80
2022/02/13 05:41:52;;;;;;;17.92;10.77;;;;;;;-2.11;91.24;101161.03;4979114;28;20055;-81
2022/02/13 05:44:19;;;;;;;19.73;10.60;;;;;;;-2.15;91.68;101152.66;4978968;28;20051;-82
2022/02/13 05:46:47;;;;;;;22.38;11.07;;;;;;;-2.16;91.65;101145.84;4978691;28;20070;-79
2022/02/13 05:49:14;;;;;;;19.90;10.15;;;;;;;-2.13;91.56;101150.84;4977594;28;20134;-83
2022/02/13 05:51:40;;;;;;;18.77;10.02;;;;;;;-2.08;91.73;101137.84;4978723;28;20055;-80
2022/02/13 05:54:07;;;;;;;20.95;11.05;;;;;;;-2.08;91.57;101148.09;4978337;28;20111;-80
2022/02/13 05:56:33;;;;;;;17.67;10.38;;;;;;;-2.07;90.53;101135.22;4977773;28;20220;-80
2022/02/13 05:59:00;;;;;;;19.90;11.52;;;;;;;-2.00;90.61;101125.53;4979210;28;20557;-80
2022/02/13 06:01:27;;;;;;;19.77;10.38;;;;;;;-1.96;89.84;101121.97;4977395;28;20149;-79
2022/02/13 06:03:55;;;;;;;21.50;10.43;;;;;;;-1.99;89.78;101126.38;4977057;28;20092;-80
2022/02/13 06:06:22;;;;;;;18.08;10.65;;;;;;;-2.04;89.84;101113.75;4976506;28;20055;-80
2022/02/13 06:08:48;;;;;;;19.17;10.15;;;;;;;-2.06;89.93;101121.50;4976308;28;20047;-81
2022/02/13 06:11:15;;;;;;;18.88;10.60;;;;;;;-2.01;89.60;101118.75;4977378;28;20137;-80
2022/02/13 06:13:41;;;;;;;16.42;10.70;;;;;;;-2.08;90.14;101115.59;4977629;28;20509;-82
2022/02/13 06:16:09;;;;;;;20.23;10.55;;;;;;;-2.07;89.66;101121.56;4977679;28;20133;-83
2022/02/13 06:18:36;;;;;;;16.60;10.93;;;;;;;-2.16;90.18;101140.72;4976766;28;20150;-81
2022/02/13 06:21:04;;;;;;;21.65;11.05;;;;;;;-2.15;90.39;101137.25;4979357;28;20122;-82
2022/02/13 06:23:31;;;;;;;21.30;10.38;;;;;;;-2.16;91.19;101127.06;4981427;28;20541;-82
2022/02/13 06:25:58;;;;;;;17.85;10.55;;;;;;;-2.05;90.28;101135.16;4990317;28;20085;-82
2022/02/13 06:28:25;;;;;;;18.42;10.90;;;;;;;-2.02;89.83;101124.78;4994993;28;20046;-81
2022/02/13 06:30:51;;;;;;;17.95;10.63;;;;;;;-2.07;89.85;101140.34;4990238;28;20086;-81
2022/02/13 06:33:18;;;;;;;18.95;10.90;;;;;;;-2.15;90.82;101137.25;4985799;28;20146;-79
2022/02/13 06:35:45;;;;;;;21.20;10.45;;;;;;;-2.06;90.03;101136.88;4986366;28;20085;-78
2022/02/13 06:38:14;;;;;;;20.85;10.85;;;;;;;-1.98;89.98;101136.56;4989277;28;20086;-80
2022/02/13 06:40:41;;;;;;;16.80;10.30;;;;;;;-1.92;89.67;101122.66;4989137;28;20563;-81
2022/02/13 06:43:08;;;;;;;17.95;10.32;;;;;;;-1.89;88.88;101114.84;4980277;28;20078;-81
2022/02/13 06:45:36;;;;;;;17.00;10.40;;;;;;;-1.90;88.36;101120.88;4976504;28;20501;-81
2022/02/13 06:48:04;;;;;;;15.93;10.00;;;;;;;-1.80;88.57;101107.56;4990668;28;20047;-81
2022/02/13 06:50:31;;;;;;;23.42;13.10;;;;;;;-1.84;88.27;101125.72;4976201;28;20109;-81
2022/02/13 06:52:57;;;;;;;17.10;10.05;;;;;;;-1.81;88.87;101110.19;4978061;28;20141;-81
2022/02/13 06:55:26;;;;;;;18.23;10.45;;;;;;;-1.72;88.74;101107.25;4977888;28;20138;-81
2022/02/13 06:57:52;;;;;;;16.65;10.20;;;;;;;-1.72;88.68;101110.63;4977766;28;20592;-84
2022/02/13 07:00:20;;;;;;;17.15;11.10;;;;;;;-1.70;87.97;101108.00;4977144;28;20078;-80
2022/02/13 07:02:47;;;;;;;17.02;9.65;;;;;;;-1.75;87.99;101100.50;4977983;28;20090;-80
2022/02/13 07:05:14;;;;;;;18.58;10.43;;;;;;;-1.77;88.27;101097.16;4977604;28;20589;-81
2022/02/13 07:07:41;;;;;;;16.80;9.68;;;;;;;-1.72;88.32;101100.38;4977041;28;20138;-80
2022/02/13 07:10:09;;;;;;;20.65;10.10;;;;;;;-1.73;88.45;101088.44;4971774;28;20075;-83
2022/02/13 07:12:37;;;;;;;17.98;10.20;;;;;;;-1.71;89.17;101086.66;4959382;29;20059;-82
2022/02/13 07:15:05;;;;;;;18.00;10.07;;;;;;;-1.67;89.02;101088.19;4958319;29;20134;-81
2022/02/13 07:17:32;;;;;;;20.08;10.68;;;;;;;-1.61;88.89;101086.25;4957294;29;20097;-81
2022/02/13 07:19:58;;;;;;;18.23;10.20;;;;;;;-1.48;89.32;101092.50;4958204;28;20082;-81
2022/02/13 07:22:25;;;;;;;18.73;11.15;;;;;;;-1.40;89.09;101087.84;4959506;29;20536;-82
2022/02/13 07:24:53;;;;;;;20.00;11.02;;;;;;;-1.05;87.79;101094.81;4960285;29;20139;-83
2022/02/13 07:27:19;;;;;;;19.10;11.02;;;;;;;-0.57;85.62;101080.53;4958559;29;20058;-83
2022/02/13 07:29:47;;;;;;;17.52;10.23;;;;;;;-0.20;84.57;101076.97;4963362;28;20145;-79
2022/02/13 07:32:14;;;;;;;17.95;10.52;;;;;;;0.03;83.20;101055.22;4979847;28;20074;-81
2022/02/13 07:34:41;;;;;;;18.17;11.32;;;;;;;0.29;82.35;101057.31;4970247;28;20459;-81
2022/02/13 07:37:07;;;;;;;17.75;9.82;;;;;;;0.53;81.09;101041.44;4978670;28;20525;-82
2022/02/13 07:39:36;;;;;;;16.60;9.55;;;;;;;0.78;79.90;101040.97;4977741;28;20093;-79
2022/02/13 07:42:03;;;;;;;17.25;10.65;;;;;;;0.52;80.56;101050.91;4959112;28;20051;-83
2022/02/13 07:44:30;;;;;;;19.02;10.25;;;;;;;0.23;81.49;101039.59;4976313;28;20138;-83
2022/02/13 07:46:58;;;;;;;15.57;9.57;;;;;;;0.11;82.18;101035.09;4977785;28;20105;-82
2022/02/13 07:49:25;;;;;;;16.13;9.55;;;;;;;0.43;81.47;101024.84;4978467;28;20110;-81
2022/02/13 07:51:52;;;;;;;18.65;10.85;;;;;;;0.73;80.12;101033.50;4940556;29;20079;-82
2022/02/13 07:54:19;;;;;;;14.95;10.38;;;;;;;0.90;79.70;101030.00;4940309;29;20119;-81
2022/02/13 07:56:45;;;;;;;15.45;10.20;;;;;;;0.75;79.41;101017.97;4964905;28;20051;-81
2022/02/13 07:59:12;;;;;;;24.23;10.98;;;;;;;0.88;79.31;101027.50;4982498;28;20126;-81
2022/02/13 08:01:38;;;;;;;23.80;13.25;;;;;;;1.45;78.29;101019.97;4984354;28;20047;-82
2022/02/13 08:04:07;;;;;;;16.63;10.27;;;;;;;1.51;76.69;101022.19;4985917;28;20054;-79
2022/02/13 08:06:33;;;;;;;14.55;10.18;;;;;;;2.13;75.55;101030.56;4985663;28;20560;-81
2022/02/13 08:09:00;;;;;;;18.98;11.43;;;;;;;2.05;75.12;101022.44;4983183;28;20109;-81
2022/02/13 08:11:27;;;;;;;15.23;10.20;;;;;;;1.84;75.45;101013.44;4982671;28;20086;-81
2022/02/13 08:13:54;;;;;;;14.15;10.13;;;;;;;2.37;73.92;100999.81;4982904;28;20146;-82
2022/02/13 08:16:21;;;;;;;14.68;9.45;;;;;;;2.57;74.30;101019.28;4982471;28;20066;-83
2022/02/13 08:18:48;;;;;;;16.75;9.25;;;;;;;2.29;73.69;101015.81;4983305;28;20055;-83
2022/02/13 08:21:16;;;;;;;14.85;9.10;;;;;;;2.65;73.80;101017.88;4983720;28;20147;-83
2022/02/13 08:23:42;;;;;;;14.48;10.00;;;;;;;3.11;72.06;101014.94;4982934;28;20074;-81
2022/02/13 08:26:09;;;;;;;14.90;9.60;;;;;;;2.44;73.80;101016.59;4983134;28;20078;-82
2022/02/13 08:28:36;;;;;;;16.80;9.60;;;;;;;2.46;74.17;101021.69;4981450;28;20042;-81
2022/02/13 08:31:04;;;;;;;14.90;9.77;;;;;;;2.28;74.29;101006.41;4982300;28;20093;-81
2022/02/13 08:33:32;;;;;;;14.15;9.75;;;;;;;2.26;74.60;101005.69;4983403;28;20480;-83
2022/02/13 08:35:59;;;;;;;15.68;8.93;;;;;;;2.03;74.92;100993.31;4984768;28;20053;-83
2022/02/13 08:38:27;;;;;;;13.98;9.30;;;;;;;2.30;74.57;100994.25;4985644;28;20077;-83
2022/02/13 08:40:54;;;;;;;15.68;10.00;;;;;;;2.26;74.67;100994.53;4987045;28;20058;-83
2022/02/13 08:43:21;;;;;;;16.60;9.93;;;;;;;2.12;74.66;100986.78;4986972;28;20051;-83
2022/02/13 08:45:50;;;;;;;20.15;9.65;;;;;;;2.31;74.48;100992.50;4987209;28;20054;-83
2022/02/13 08:48:18;;;;;;;16.40;9.60;;;;;;;2.30;74.53;100996.00;4988511;28;20055;-84
2022/02/13 08:50:45;;;;;;;17.35;9.98;;;;;;;2.47;73.99;100997.50;4983710;28;20055;-83
2022/02/13 08:53:12;;;;;;;14.80;9.82;;;;;;;2.44;73.83;100995.94;4988356;28;20078;-82
2022/02/13 08:55:41;;;;;;;15.90;9.48;;;;;;;2.39;73.84;100994.56;4990293;28;20050;-83
2022/02/13 08:58:07;;;;;;;14.70;9.30;;;;;;;2.53;73.67;100997.97;4993316;28;20089;-84
2022/02/13 09:00:34;;;;;;;20.40;9.98;;;;;;;2.43;73.30;100990.88;4992022;28;20047;-82
2022/02/13 09:03:01;;;;;;;16.35;9.77;;;;;;;2.48;74.41;100988.84;4994081;28;20051;-84
2022/02/13 09:05:28;;;;;;;17.15;10.15;;;;;;;2.53;73.09;100986.81;4997666;28;20078;-85
2022/02/13 09:07:54;;;;;;;15.38;9.43;;;;;;;2.58;72.97;100990.75;4997355;28;20047;-83
2022/02/13 09:10:21;;;;;;;15.32;10.27;;;;;;;2.85;73.12;100977.84;4991523;28;20094;-85
2022/02/13 09:12:49;;;;;;;14.88;9.82;;;;;;;2.72;72.22;100987.31;4975819;28;20134;-82
2022/02/13 09:15:16;;;;;;;15.90;9.40;;;;;;;2.70;72.14;100988.34;4964621;29;20161;-83
2022/02/13 09:17:43;;;;;;;13.45;8.88;;;;;;;2.88;72.25;100987.97;4962563;29;20055;-82
2022/02/13 09:20:11;;;;;;;15.45;9.38;;;;;;;2.82;72.06;100972.88;4962571;28;20091;-81
2022/02/13 09:22:38;;;;;;;13.77;9.10;;;;;;;2.92;71.90;100970.50;4962502;29;20075;-83
2022/02/13 09:25:05;;;;;;;17.27;9.48;;;;;;;3.11;70.97;100981.34;4960319;29;20082;-81
2022/02/13 09:27:32;;;;;;;15.48;8.77;;;;;;;3.10;69.64;100971.09;4958909;28;20055;-80
2022/02/13 09:30:02;;;;;;;15.10;8.82;;;;;;;3.11;70.68;100965.81;4961019;28;20051;-80
2022/02/13 09:32:29;;;;;;;14.02;8.90;;;;;;;3.22;69.99;100972.88;4960613;28;20059;-79
2022/02/13 09:34:55;;;;;;;13.05;9.07;;;;;;;3.16;70.35;100966.34;4960604;28;20162;-79
2022/02/13 09:37:23;;;;;;;16.35;9.00;;;;;;;3.23;70.29;100966.78;4942516;29;20225;-81
2022/02/13 09:39:50;;;;;;;11.60;8.25;;;;;;;3.16;70.86;100957.78;4944678;29;20145;-80
2022/02/13 09:42:19;;;;;;;17.95;8.95;;;;;;;3.21;70.69;100953.94;4944398;29;20146;-83
2022/02/13 09:44:46;;;;;;;13.70;7.97;;;;;;;3.22;69.67;100931.50;4944245;29;20088;-80
2022/02/13 09:47:16;;;;;;;13.68;8.38;;;;;;;3.29;69.39;100936.19;4945465;29;20056;-80
2022/02/13 09:49:42;;;;;;;12.25;8.48;;;;;;;3.33;68.97;100936.78;4943834;29;20056;-83
2022/02/13 09:52:09;;;;;;;13.00;8.07;;;;;;;3.52;69.18;100942.38;4944532;29;20087;-80
2022/02/13 09:54:36;;;;;;;16.00;8.23;;;;;;;3.66;69.17;100937.13;4945051;29;20079;-82
2022/02/13 09:59:54;;;;;;;10.50;8.13;;;;;;;3.72;68.10;100929.88;4944150;29;20084;-79
2022/02/13 10:02:39;;;;;;;15.27;8.73;;;;;;;3.95;67.97;100921.31;4956665;29;20059;-81
2022/02/13 10:05:08;;;;;;;14.70;8.27;;;;;;;3.92;67.21;100919.78;4950100;29;20045;-80
2022/02/13 10:07:37;;;;;;;13.45;8.40;;;;;;;3.90;68.50;100902.69;4964437;28;20055;-79
2022/02/13 10:10:06;;;;;;;12.68;8.32;;;;;;;4.20;67.76;100902.31;4964492;29;20078;-84
2022/02/13 10:12:39;;;;;;;13.20;8.40;;;;;;;4.48;67.25;100901.16;4963793;29;20082;-80
2022/02/13 10:15:30;;;;;;;12.88;8.57;;;;;;;4.63;66.43;100902.66;4962294;29;20047;-81
2022/02/13 10:21:20;;;;;;;13.73;8.35;;;;;;;4.69;65.67;100878.06;4983937;28;20055;-84
2022/02/13 11:03:53;;;;;;;12.65;7.50;;;;;;;6.17;61.28;100803.41;4713601;30;20072;-83
2022/02/13 11:06:45;;;;;;;11.75;7.97;;;;;;;6.57;60.94;100815.78;4757311;30;20175;-82
2022/02/13 11:12:58;;;;;;;12.20;7.20;;;;;;;6.71;60.07;100804.25;4837857;29;20143;-84
2022/02/13 11:15:51;;;;;;;11.38;7.20;;;;;;;6.91;58.81;100803.41;4945222;28;20042;-82
2022/02/13 11:18:39;;;;;;;12.05;7.65;;;;;;;6.79;59.29;100779.25;4987844;28;20046;-83
2022/02/13 11:24:54;;;;;;;14.02;7.10;;;;;;;7.08;58.60;100766.41;4973643;28;20049;-82
2022/02/13 11:28:10;;;;;;;10.85;7.07;;;;;;;7.07;58.30;100753.53;4990032;28;20054;-83
2022/02/13 11:33:49;;;;;;;12.60;7.00;;;;;;;7.50;56.64;100754.09;4989161;28;20090;-83
2022/02/13 11:36:31;;;;;;;;;;;;;;;;;;;;;
2022/02/13 11:39:06;;;;;;;12.43;6.93;;;;;;;7.82;56.28;100758.25;4988766;28;20110;-82
2022/02/13 11:42:21;;;;;;;11.68;6.55;;;;;;;7.86;55.29;100736.19;4992297;28;20047;-82
2022/02/13 11:44:59;;;;;;;13.52;6.88;;;;;;;8.00;56.08;100746.22;4910531;29;20132;-83
2022/02/13 11:47:51;;;;;;;12.43;6.68;;;;;;;8.29;55.83;100743.59;4912417;29;20684;-82
2022/02/13 11:50:43;;;;;;;;;;;;;;;;;;;;;
2022/02/13 11:53:32;;;;;;;14.40;8.63;;;;;;;8.41;54.75;100733.88;4993095;28;20285;-81
2022/02/13 11:56:24;;;;;;;10.35;6.60;;;;;;;8.47;53.30;100725.50;4993320;28;20133;-82
2022/02/13 12:34:10;;;;;;;8.85;5.03;;;;;;;9.58;51.00;100631.38;4808969;29;20455;-80
2022/02/13 13:39:37;;;;;;;;;;;;;;;;;;;;;
2022/02/13 14:03:13;;;;;;;;;;;;;;;;;;;;;
2022/02/13 14:19:53;;;;;;;12.02;6.93;;;;;;;10.61;59.87;100426.56;4178418;26;20046;-80
2022/02/13 14:47:14;;;;;;;11.43;7.20;;;;;;;10.32;60.84;100360.81;5010162;28;20062;-86
2022/02/13 14:49:42;;;;;;;11.82;6.53;;;;;;;10.30;59.50;100353.13;5003366;28;20454;-88
2022/02/13 14:52:10;;;;;;;11.77;6.85;;;;;;;10.25;60.55;100352.78;4990721;28;20105;-86
2022/02/13 14:54:37;;;;;;;12.38;7.00;;;;;;;10.16;60.24;100344.06;4981078;28;20070;-91
2022/02/13 14:57:04;;;;;;;13.70;7.22;;;;;;;10.19;59.67;100342.94;4983058;28;20077;-90
2022/02/13 14:59:30;;;;;;;13.60;7.07;;;;;;;10.20;59.91;100345.41;4981586;28;20075;-89
2022/02/13 15:01:57;;;;;;;15.95;6.85;;;;;;;10.20;59.63;100337.56;4982257;28;20125;-89
2022/02/13 15:04:26;;;;;;;15.02;8.95;;;;;;;10.07;60.18;100326.72;4995295;28;20050;-88
2022/02/13 15:06:53;;;;;;;16.75;8.85;;;;;;;10.14;59.68;100329.53;4999576;28;20054;-90
2022/02/13 15:09:19;;;;;;;15.38;7.88;;;;;;;9.99;59.66;100308.41;4999025;28;20059;-87
2022/02/13 15:11:47;;;;;;;13.68;7.72;;;;;;;9.97;59.62;100318.19;4997097;28;20054;-88
2022/02/13 15:14:15;;;;;;;18.77;8.70;;;;;;;9.91;59.45;100303.19;4998919;28;20054;-89
2022/02/13 15:16:43;;;;;;;16.02;9.68;;;;;;;9.87;59.89;100296.63;4990333;28;20043;-88
2022/02/13 15:22:58;;;;;;;15.38;9.70;;;;;;;9.76;59.86;100273.41;4981474;28;20059;-88
2022/02/13 15:28:15;;;;;;;14.73;7.18;;;;;;;9.75;60.65;100261.31;4965852;28;20058;-90
2022/02/13 15:31:01;;;;;;;13.88;7.43;;;;;;;9.68;60.67;100255.91;4981970;28;20478;-89
2022/02/13 15:34:14;;;;;;;12.75;6.80;;;;;;;9.60;61.02;100268.94;4981640;28;20055;-88
2022/02/13 15:36:42;;;;;;;14.88;9.98;;;;;;;9.59;60.59;100278.56;4982009;28;20508;-88
2022/02/13 15:39:12;;;;;;;12.15;8.05;;;;;;;9.56;60.41;100260.59;4982319;28;20110;-88
2022/02/13 15:41:40;;;;;;;13.38;7.32;;;;;;;9.58;60.11;100266.50;4982185;28;20141;-89
2022/02/13 15:44:13;;;;;;;13.88;8.77;;;;;;;9.57;59.95;100250.97;4982064;28;20118;-89
2022/02/13 15:46:54;;;;;;;9.98;7.90;;;;;;;9.56;59.95;100255.38;4980761;28;20411;-90
2022/02/13 15:52:13;;;;;;;11.95;7.07;;;;;;;9.50;60.29;100249.97;4978977;28;20486;-89
2022/02/13 15:54:41;;;;;;;11.50;7.32;;;;;;;9.53;60.67;100247.03;4979174;28;20552;-89
2022/02/13 16:17:38;;;;;;;15.23;8.98;;;;;;;9.08;61.83;100258.59;4940162;29;20542;-89
2022/02/13 16:20:37;;;;;;;14.15;9.05;;;;;;;8.96;62.09;100239.81;4963615;28;20074;-89
2022/02/13 16:25:54;;;;;;;15.98;8.85;;;;;;;8.81;62.85;100227.47;4982222;28;20046;-88
2022/02/13 16:28:22;;;;;;;12.43;8.68;;;;;;;8.72;63.52;100231.81;4985147;28;20138;-90
2022/02/13 16:30:55;;;;;;;16.95;9.00;;;;;;;8.60;63.38;100212.19;4982187;28;20050;-88
2022/02/13 16:33:33;;;;;;;17.33;8.02;;;;;;;8.60;63.58;100227.84;4984308;28;20051;-89
2022/02/13 16:36:01;;;;;;;15.32;7.75;;;;;;;8.65;63.85;100234.22;4983487;28;20050;-89
2022/02/13 16:38:28;;;;;;;20.00;10.65;;;;;;;8.46;64.02;100207.53;4984553;28;20054;-89
2022/02/13 16:40:56;;;;;;;12.07;8.30;;;;;;;8.43;64.54;100202.63;4983221;28;20054;-91
2022/02/13 16:43:24;;;;;;;17.83;10.48;;;;;;;8.34;64.55;100206.16;4983703;28;20055;-89
2022/02/13 16:45:51;;;;;;;17.58;7.95;;;;;;;8.29;64.77;100209.19;4985619;28;20058;-88
2022/02/13 16:48:18;;;;;;;13.10;7.65;;;;;;;8.19;66.02;100211.88;4984972;28;20054;-89
2022/02/13 16:50:47;;;;;;;14.20;7.80;;;;;;;8.03;67.73;100209.16;4984832;28;20046;-90
2022/02/13 16:53:18;;;;;;;15.93;9.00;;;;;;;7.98;68.17;100180.13;4983730;28;20051;-89
2022/02/13 16:55:45;;;;;;;12.23;8.23;;;;;;;7.97;68.77;100210.56;4985493;28;20469;-89
2022/02/13 16:58:12;;;;;;;15.38;9.15;;;;;;;7.95;69.25;100211.66;4984602;28;20043;-90
2022/02/13 17:00:40;;;;;;;15.48;9.00;;;;;;;7.81;69.14;100173.94;4984714;28;20079;-89
2022/02/13 17:03:07;;;;;;;14.57;9.00;;;;;;;7.90;68.77;100190.47;4984392;28;20047;-89
2022/02/13 17:20:48;;;;;;;65.57;53.78;;;;;;;7.56;70.08;100180.69;4921030;29;20115;-91
2022/02/13 17:23:20;;;;;;;55.83;39.97;;;;;;;7.39;69.91;100152.88;4972894;28;20062;-91
2022/02/13 17:56:43;;;;;;;15.45;9.93;;;;;;;7.05;71.13;100123.22;4890938;29;20093;-81
2022/02/13 17:59:28;;;;;;;15.75;9.90;;;;;;;7.02;71.10;100129.53;4918103;29;20134;-80
2022/02/13 18:06:20;;;;;;;18.27;10.32;;;;;;;7.21;70.38;100128.59;4803408;29;20196;-81
2022/02/13 18:15:19;;;;;;;13.30;8.95;;;;;;;7.20;70.30;100126.94;4953961;28;20130;-82
2022/02/13 18:17:46;;;;;;;12.60;9.10;;;;;;;7.11;69.96;100101.81;4900454;29;20053;-80
2022/02/13 18:20:14;;;;;;;16.77;9.23;;;;;;;7.22;70.27;100118.03;4926836;29;20122;-81
2022/02/13 18:22:41;;;;;;;17.80;9.52;;;;;;;7.30;69.72;100117.31;4941898;29;20090;-83
2022/02/13 18:25:08;;;;;;;16.75;9.45;;;;;;;7.29;69.51;100110.47;4940115;29;20090;-81
2022/02/13 18:27:35;;;;;;;16.92;9.70;;;;;;;7.19;70.20;100107.91;4942651;29;20047;-82
2022/02/13 18:30:02;;;;;;;17.65;8.85;;;;;;;7.05;70.16;100071.19;4950277;29;20058;-81